アデレード の空港の天気 - METARとTAF

アデレード空港 ( YPAD / ADL ) - オーストラリア 南オーストラリア州アデレード
飛行場実況気象(Metar)
観測時間07/29 12:00 ACST (07/29 02:30 UTC)
風向・風速北 7m/s
視程10km以上
天気現象
なし
気温15℃
湿度45%
気圧1015hPa
METARYPAD 290230Z 35014KT CAVOK 15/03 Q1015
過去の天気等 Google飛行場航空写真 Wunderground天気予報

過去48時間のMETAR

飛行場予報(TAF)
発表時間: 7/29 11:34 ACST (7/29 02:04 UTC)
予報対象時間: 29日12時 ACST ~ 30日15時 ACST
風向・風速北北西 7m/s
視程10km以上
なし
29日18時 ACST から
風向・風速北北東 6m/s
視程10km以上
なし
30日11時 ACST ~ 30日12時 ACST に徐々に
風向・風速北北西 9m/s 瞬間風速 14m/s
視程10km以上
なし
TAF YPAD 290204Z 2903/3006 34014KT CAVOK
FM290900 02012KT CAVOK
BECMG 3002/3003 34018G28KT CAVOK